Search for airport 
image banner adimage banner adimage banner ad
image banner ad

CA660 - Brabant Lodge (Cea8)

Located in , Canada

ICAO - , IATA -

Data provided by Airmate  

General information

Coordinates: N61°3'0" W116°36'0"
Elevation is feet MSL.
 
View others Airports in Northwest Territories

Operational data

Special qualification required
Current time UTC:
Current local time:
Weather at : CYHY - Merlyn Carter Airport ( 50 km )
METAR: CYHY 221400Z 14009KT 15SM FEW160 FEW230 02/M03 A2976 RMK AC1CI2 AC TR SLP088
TAF: TAF CYHY 221138Z 2212/2224 13010KT P6SM SKC RMK NXT FCST BY 221800Z
View NOTAMs / SUP AIP / TFR affecting this airport [VIEW]
Communications frequencies: [VIEW]

Runways:

Airport contact information

Address: Canada

Satellite view of CA660